Time;durP1;ratioP1;P1;durP2;ratioP2;P2;SDS_P1;SDS_P2;PMS_P1;PMS_P2;Temp;Humidity;BMP_temperature;BMP_pressure;BME280_temperature;BME280_humidity;BME280_pressure;Samples;Min_cycle;Max_cycle;Signal;HPM_P1;HPM_P2
2022/05/08 00:06:36;;;;;;;19.33;3.57;;;;;;;10.62;73.89;102530.66;20958603;28;20534;-65
2022/05/08 00:16:58;;;;;;;17.87;3.40;;;;;;;10.53;73.77;102531.00;20965098;28;20510;-65
2022/05/08 00:27:20;;;;;;;14.63;3.47;;;;;;;10.43;74.23;102525.34;20941056;28;20032;-65
2022/05/08 00:37:41;;;;;;;21.97;3.50;;;;;;;10.34;74.16;102533.50;20973794;28;20040;-65
2022/05/08 00:48:03;;;;;;;15.60;3.63;;;;;;;10.34;73.38;102533.50;20981436;28;20044;-65
2022/05/08 00:58:25;;;;;;;22.30;3.78;;;;;;;10.33;73.19;102537.03;20950929;28;20056;-65
2022/05/08 01:08:48;;;;;;;26.77;3.83;;;;;;;10.30;73.41;102537.16;20989274;28;20521;-66
2022/05/08 01:19:10;;;;;;;21.27;3.70;;;;;;;10.16;74.54;102528.97;20947313;28;20039;-65
2022/05/08 01:29:31;;;;;;;19.70;3.70;;;;;;;10.02;74.90;102533.81;20939083;28;20045;-65
2022/05/08 01:39:55;;;;;;;25.50;4.37;;;;;;;9.95;74.00;102534.88;20934290;28;20059;-66
2022/05/08 01:50:17;;;;;;;21.50;3.70;;;;;;;9.79;74.50;102541.53;20954367;28;20040;-65
2022/05/08 02:00:38;;;;;;;24.23;3.90;;;;;;;9.72;74.58;102547.84;20898135;28;20055;-67
2022/05/08 02:11:00;;;;;;;20.47;3.70;;;;;;;9.60;75.15;102537.84;20954134;28;20041;-66
2022/05/08 02:21:21;;;;;;;19.07;4.13;;;;;;;9.53;75.36;102537.19;20960843;28;20052;-65
2022/05/08 02:31:43;;;;;;;18.27;3.90;;;;;;;9.44;75.02;102541.88;20939520;28;20141;-65
2022/05/08 02:42:06;;;;;;;23.80;3.77;;;;;;;9.39;74.75;102543.75;20950585;28;20127;-65
2022/05/08 02:52:27;;;;;;;14.52;3.47;;;;;;;9.26;75.25;102539.84;20941446;28;20452;-65
2022/05/08 03:02:49;;;;;;;20.20;4.27;;;;;;;9.12;75.57;102534.22;20960438;28;20040;-66
2022/05/08 03:13:11;;;;;;;14.47;3.97;;;;;;;9.09;75.46;102528.28;20954183;28;20106;-65
2022/05/08 03:23:34;;;;;;;17.25;3.50;;;;;;;9.00;75.04;102529.41;20959540;28;20397;-64
2022/05/08 03:33:55;;;;;;;12.13;2.88;;;;;;;8.93;74.79;102543.50;20983617;28;20040;-65
2022/05/08 03:44:17;;;;;;;11.33;3.00;;;;;;;8.82;75.28;102544.69;20945107;28;20048;-66
2022/05/08 03:54:38;;;;;;;13.87;3.30;;;;;;;8.75;75.55;102549.22;20929827;28;20044;-67
2022/05/08 04:05:01;;;;;;;19.00;3.87;;;;;;;8.66;75.82;102553.84;20948996;28;20519;-66
2022/05/08 04:26:02;;;;;;;12.70;2.92;;;;;;;8.91;74.06;102560.88;20962339;28;20103;-67
2022/05/08 04:36:24;;;;;;;7.93;2.70;;;;;;;8.88;74.65;102565.34;20970427;28;20040;-65
2022/05/08 04:46:45;;;;;;;12.63;3.23;;;;;;;8.96;74.27;102576.34;21003095;28;20044;-65
2022/05/08 04:57:07;;;;;;;9.13;2.90;;;;;;;9.02;74.43;102589.19;21024138;28;20047;-67
2022/05/08 05:07:28;;;;;;;10.17;2.83;;;;;;;9.12;74.27;102598.41;20965572;28;20040;-65
2022/05/08 05:17:53;;;;;;;16.70;2.50;;;;;;;9.23;74.23;102609.34;20958926;28;20041;-64
2022/05/08 05:28:15;;;;;;;13.65;2.60;;;;;;;9.30;73.93;102605.66;20948475;28;20048;-65
2022/05/08 05:38:36;;;;;;;14.23;2.40;;;;;;;9.50;74.12;102624.94;21008704;28;20392;-66
2022/05/08 05:48:58;;;;;;;17.70;2.97;;;;;;;9.53;74.68;102621.41;20989380;28;20547;-65
2022/05/08 05:59:19;;;;;;;14.93;2.50;;;;;;;9.54;73.67;102627.41;20945794;28;20041;-66
2022/05/08 06:10:00;;;;;;;12.25;2.33;;;;;;;9.73;73.12;102651.13;20949152;28;20060;-66
2022/05/08 06:20:23;;;;;;;12.30;2.20;;;;;;;9.91;72.40;102653.09;20964227;28;20576;-65
2022/05/08 06:30:44;;;;;;;12.97;2.40;;;;;;;10.18;72.26;102657.47;20979937;28;20044;-67
2022/05/08 06:41:06;;;;;;;10.73;2.10;;;;;;;10.56;71.06;102656.06;20965704;28;20041;-65
2022/05/08 06:51:28;;;;;;;14.47;2.13;;;;;;;10.78;70.31;102664.81;20932537;28;20129;-66
2022/05/08 07:01:49;;;;;;;10.38;1.73;;;;;;;11.07;69.45;102669.81;20945167;28;20051;-65
2022/05/08 07:12:11;;;;;;;12.00;1.85;;;;;;;11.42;70.32;102678.97;20936335;28;20093;-68
2022/05/08 07:22:34;;;;;;;14.90;2.27;;;;;;;11.76;67.43;102688.06;20928138;28;20044;-68
2022/05/08 07:32:56;;;;;;;18.67;2.45;;;;;;;11.71;68.12;102679.53;20966577;28;20521;-67
2022/05/08 07:43:18;;;;;;;12.70;2.20;;;;;;;11.73;67.80;102693.41;20907923;28;20045;-68
2022/05/08 07:53:39;;;;;;;16.73;2.27;;;;;;;11.76;67.79;102703.72;20887732;28;20532;-67
2022/05/08 08:04:02;;;;;;;17.97;2.37;;;;;;;11.76;67.19;102703.72;20893062;28;20041;-67
2022/05/08 08:14:23;;;;;;;12.60;2.05;;;;;;;12.08;67.27;102705.91;21007629;28;20048;-67
2022/05/08 08:25:05;;;;;;;14.77;2.00;;;;;;;12.29;65.35;102705.00;20893986;28;20040;-67
2022/05/08 08:35:26;;;;;;;14.57;1.90;;;;;;;12.44;64.78;102714.84;20929552;28;20136;-67
2022/05/08 08:56:29;;;;;;;19.10;2.53;;;;;;;12.93;63.35;102724.03;20952686;28;20052;-68
2022/05/08 09:06:50;;;;;;;14.88;2.05;;;;;;;13.09;63.29;102722.44;20971515;28;20412;-68
2022/05/08 09:17:12;;;;;;;16.07;2.23;;;;;;;13.28;61.99;102710.19;20957364;28;20436;-67
2022/05/08 09:27:33;;;;;;;11.77;1.80;;;;;;;13.56;62.16;102719.31;20973900;28;20041;-67
2022/05/08 09:37:56;;;;;;;10.53;2.10;;;;;;;13.87;61.37;102718.72;20917300;28;20390;-68
2022/05/08 09:48:18;;;;;;;12.95;2.25;;;;;;;14.07;60.65;102706.31;20956039;28;20041;-68
2022/05/08 09:58:40;;;;;;;13.70;2.28;;;;;;;14.18;61.91;102703.22;20951397;28;20044;-69
2022/05/08 10:19:45;;;;;;;15.32;2.40;;;;;;;14.84;60.57;102698.88;20955454;28;20055;-68
2022/05/08 10:30:06;;;;;;;10.45;2.10;;;;;;;15.14;59.58;102694.59;20950175;28;20415;-67
2022/05/08 10:40:28;;;;;;;9.70;2.40;;;;;;;15.24;59.33;102682.69;20957382;28;20054;-67
2022/05/08 10:50:51;;;;;;;;;;;;;;;15.41;51.29;102680.03;20940884;28;20040;-67
2022/05/08 11:01:13;;;;;;;7.95;1.80;;;;;;;15.94;58.13;102676.03;20949767;28;20301;-67
2022/05/08 11:11:35;;;;;;;14.13;2.33;;;;;;;16.10;58.33;102681.28;20960397;28;20044;-70
2022/05/08 11:22:05;;;;;;;9.70;2.25;;;;;;;16.49;52.83;102680.66;20926693;28;20054;-67
2022/05/08 11:43:06;;;;;;;8.70;1.98;;;;;;;17.13;57.14;102681.09;20907773;28;20072;-70
2022/05/08 11:53:28;;;;;;;;;;;;;;;17.12;46.69;102673.25;20914669;28;20059;-65
2022/05/08 12:03:49;;;;;;;5.13;1.70;;;;;;;17.28;56.13;102674.88;20946206;28;20306;-66
2022/05/08 12:14:11;;;;;;;9.10;1.95;;;;;;;17.30;56.78;102662.47;20922895;28;20036;-67
2022/05/08 12:24:32;;;;;;;;;;;;;;;17.22;45.32;102648.88;20908888;28;20041;-69
2022/05/08 12:34:54;;;;;;;11.18;1.90;;;;;;;17.11;60.21;102650.47;20944276;28;19924;-67
2022/05/08 12:45:16;;;;;;;9.43;1.88;;;;;;;16.82;60.79;102643.53;20902367;28;20040;-66
2022/05/08 12:55:37;;;;;;;10.32;2.08;;;;;;;16.67;60.45;102650.59;20937580;28;20040;-67
2022/05/08 13:05:59;;;;;;;12.35;2.50;;;;;;;16.65;60.12;102635.84;20922841;28;20404;-66
2022/05/08 13:16:20;;;;;;;;;;;;;;;16.38;51.87;102631.38;20904665;28;20811;-67
2022/05/08 13:26:42;;;;;;;9.20;2.15;;;;;;;16.37;59.95;102633.19;20937163;28;19989;-67
2022/05/08 13:37:04;;;;;;;14.40;2.58;;;;;;;16.25;60.03;102627.75;20927799;28;20045;-66
2022/05/08 13:47:25;;;;;;;;;;;;;;;16.14;52.35;102615.22;20885993;28;20059;-66
2022/05/08 13:57:48;;;;;;;12.80;2.40;;;;;;;16.26;58.17;102619.75;20948404;28;19928;-68
2022/05/08 14:08:10;;;;;;;11.10;2.22;;;;;;;16.08;58.65;102622.63;20887595;28;20667;-68
2022/05/08 14:18:32;;;;;;;16.58;2.58;;;;;;;15.99;58.68;102612.66;20923733;28;20040;-67
2022/05/08 14:28:53;;;;;;;14.50;2.20;;;;;;;15.98;59.14;102616.22;20900639;28;20041;-67
2022/05/08 14:39:15;;;;;;;12.68;2.40;;;;;;;15.97;58.59;102609.28;20936454;28;20044;-67
2022/05/08 14:49:37;;;;;;;9.75;1.83;;;;;;;15.98;59.00;102600.44;20911677;28;20048;-66
2022/05/08 14:59:58;;;;;;;7.00;1.80;;;;;;;15.83;57.35;102596.91;20943982;28;20044;-66
2022/05/08 15:10:20;;;;;;;10.80;1.73;;;;;;;15.77;58.92;102597.28;20948043;28;20040;-68
2022/05/08 15:20:42;;;;;;;9.27;1.88;;;;;;;15.70;58.88;102595.09;20922137;28;20071;-70
2022/05/08 15:31:04;;;;;;;11.30;2.05;;;;;;;15.72;59.13;102588.81;20930742;28;20040;-69
2022/05/08 15:41:25;;;;;;;13.15;2.13;;;;;;;15.70;59.44;102589.84;20942226;28;20051;-67
2022/05/08 15:51:47;;;;;;;8.43;1.63;;;;;;;15.55;59.23;102601.22;20920941;28;20651;-68
2022/05/08 16:02:08;;;;;;;13.80;2.10;;;;;;;15.55;58.94;102602.06;20937515;28;20056;-67
2022/05/08 16:23:11;;;;;;;15.77;2.47;;;;;;;16.10;58.69;102599.72;20937975;28;20479;-67
2022/05/08 16:23:11;;;;;;;;;;;;;;;15.68;52.85;102602.22;20950149;28;20127;-69
2022/05/08 16:33:33;;;;;;;;;;;;;;;16.29;51.20;102616.13;20923467;28;20044;-67
2022/05/08 16:43:55;;;;;;;19.38;2.40;;;;;;;16.97;56.79;102616.25;20931638;28;20432;-68
2022/05/08 16:54:22;;;;;;;12.70;2.08;;;;;;;16.70;59.63;102618.81;20920421;28;20041;-68
2022/05/08 17:04:44;;;;;;;11.93;2.20;;;;;;;16.77;60.63;102609.56;20883440;28;20743;-66
2022/05/08 17:15:07;;;;;;;10.75;2.15;;;;;;;16.29;60.40;102609.06;20941260;28;20041;-67
2022/05/08 17:25:29;;;;;;;11.13;2.33;;;;;;;16.22;61.78;102610.38;20894146;28;20059;-69
2022/05/08 17:35:50;;;;;;;10.15;1.80;;;;;;;16.21;61.28;102613.06;20903756;28;20045;-67
2022/05/08 17:46:13;;;;;;;11.05;2.10;;;;;;;15.85;60.51;102610.00;20954966;28;20042;-70
2022/05/08 17:56:35;;;;;;;10.38;1.88;;;;;;;15.36;61.01;102616.34;20939208;28;20088;-66
2022/05/08 18:06:56;;;;;;;;;;;;;;;14.90;48.59;102617.13;20949659;28;20115;-67
2022/05/08 18:17:19;;;;;;;7.93;1.63;;;;;;;14.63;59.89;102613.34;20899645;28;19968;-69
2022/05/08 18:27:41;;;;;;;7.00;1.67;;;;;;;14.37;59.21;102630.53;20903252;28;20067;-71
2022/05/08 18:38:07;;;;;;;8.73;1.80;;;;;;;14.03;60.16;102626.13;20915741;28;20045;-69
2022/05/08 18:48:28;;;;;;;10.10;2.35;;;;;;;13.77;60.46;102649.31;20887068;28;20053;-70
2022/05/08 18:58:50;;;;;;;10.30;2.28;;;;;;;13.49;61.28;102643.69;20897310;28;20056;-71
2022/05/08 19:09:12;;;;;;;12.35;2.10;;;;;;;13.25;61.92;102655.31;20873822;28;20120;-69
2022/05/08 19:19:34;;;;;;;10.82;2.63;;;;;;;13.09;62.64;102659.59;20882370;28;20731;-73
2022/05/08 19:29:55;;;;;;;17.77;2.87;;;;;;;12.88;63.63;102650.03;20879959;28;20075;-73
2022/05/08 19:40:18;;;;;;;13.00;2.90;;;;;;;12.65;64.87;102663.31;20968525;28;20054;-71
2022/05/08 19:50:39;;;;;;;17.50;2.80;;;;;;;12.50;65.24;102671.81;20922524;28;20047;-71
2022/05/08 20:01:01;;;;;;;15.30;2.87;;;;;;;12.32;66.54;102668.28;20924909;28;20044;-71
2022/05/08 20:11:22;;;;;;;14.15;2.65;;;;;;;12.19;66.80;102674.94;20904792;28;20078;-70
2022/05/08 20:22:02;;;;;;;15.10;2.77;;;;;;;12.08;66.77;102679.78;20930803;28;20585;-70
2022/05/08 20:32:24;;;;;;;12.07;2.78;;;;;;;11.91;67.72;102687.44;20873657;28;20106;-71
2022/05/08 20:42:45;;;;;;;10.20;2.40;;;;;;;11.80;67.68;102684.38;20942039;28;20048;-72
2022/05/08 20:53:07;;;;;;;18.07;3.07;;;;;;;11.67;68.36;102689.28;20966047;28;20048;-71
2022/05/08 21:03:28;;;;;;;19.03;3.23;;;;;;;11.54;68.62;102695.03;20886732;28;20053;-76
2022/05/08 21:13:50;;;;;;;22.17;3.27;;;;;;;11.43;69.08;102694.56;20900408;28;20654;-71
2022/05/08 21:24:11;;;;;;;15.00;3.13;;;;;;;11.27;69.54;102706.50;20966378;28;20037;-73
2022/05/08 21:34:33;;;;;;;14.17;3.20;;;;;;;11.14;69.71;102693.94;20921655;28;20390;-71
2022/05/08 21:44:54;;;;;;;18.73;3.40;;;;;;;10.98;70.39;102693.66;20936633;28;20067;-70
2022/05/08 21:55:16;;;;;;;12.90;3.13;;;;;;;10.82;69.88;102695.13;20972941;28;20048;-71
2022/05/08 22:05:37;;;;;;;17.63;3.50;;;;;;;10.67;71.15;102694.81;20973569;28;20051;-70
2022/05/08 22:15:59;;;;;;;17.60;3.43;;;;;;;10.62;71.16;102694.13;20962705;28;20051;-70
2022/05/08 22:26:20;;;;;;;12.33;3.10;;;;;;;10.52;70.98;102700.56;20954673;28;20839;-70
2022/05/08 22:36:43;;;;;;;17.67;3.20;;;;;;;10.50;71.37;102691.06;20949537;28;20128;-71
2022/05/08 22:47:04;;;;;;;15.60;3.30;;;;;;;10.48;71.39;102698.13;20961026;28;20051;-71
2022/05/08 22:57:26;;;;;;;11.30;2.97;;;;;;;10.43;72.10;102692.22;20900638;28;20046;-71
2022/05/08 23:07:47;;;;;;;12.47;3.27;;;;;;;10.41;72.10;102696.63;20958422;28;20044;-73
2022/05/08 23:18:11;;;;;;;11.70;2.93;;;;;;;10.32;71.79;102683.91;20960178;28;20040;-71
2022/05/08 23:28:37;;;;;;;14.18;3.10;;;;;;;10.30;71.82;102685.72;20927739;28;20051;-70
2022/05/08 23:38:59;;;;;;;20.27;3.17;;;;;;;10.26;71.84;102697.13;20903389;28;20040;-69
2022/05/08 23:49:20;;;;;;;16.67;3.03;;;;;;;10.12;72.53;102683.72;20974183;28;20045;-70
2022/05/08 23:59:42;;;;;;;7.37;2.10;;;;;;;10.01;73.21;102691.03;20947634;28;20041;-69
